createdAt,value
2019-01-18T00:00:12.711Z,100740.86
2019-01-18T00:00:55.440Z,100730.08
2019-01-18T00:01:34.158Z,100734.12
2019-01-18T00:02:13.525Z,100738.42
2019-01-18T00:02:50.747Z,100736.25
2019-01-18T00:03:27.709Z,100740.55
2019-01-18T00:04:04.649Z,100736.77
2019-01-18T00:04:41.719Z,100738.63
2019-01-18T00:05:18.758Z,100741.06
2019-01-18T00:05:55.467Z,100745.66
2019-01-18T00:06:31.673Z,100745.11
2019-01-18T00:07:08.330Z,100742.93
2019-01-18T00:07:45.343Z,100746.95
2019-01-18T00:08:21.644Z,100748.84
2019-01-18T00:08:57.952Z,100748.81
2019-01-18T00:09:34.994Z,100748.81
2019-01-18T00:10:12.524Z,100753.41
2019-01-18T00:10:48.919Z,100753.11
2019-01-18T00:11:25.593Z,100753.38
2019-01-18T00:12:02.172Z,100748.23
2019-01-18T00:12:38.554Z,100760.38
2019-01-18T00:13:15.748Z,100749.59
2019-01-18T00:13:52.013Z,100758.45
2019-01-18T00:14:28.796Z,100762.21
2019-01-18T00:15:05.924Z,100760.31
2019-01-18T00:15:42.389Z,100763.02
2019-01-18T00:16:18.819Z,100756.27
2019-01-18T00:16:56.711Z,100760.03
2019-01-18T00:17:33.753Z,100762.19
2019-01-18T00:18:10.414Z,100765.11
2019-01-18T00:18:47.461Z,100770.25
2019-01-18T00:19:23.767Z,100767.80
2019-01-18T00:20:00.239Z,100766.72
2019-01-18T00:20:37.350Z,100772.69
2019-01-18T00:21:13.853Z,100769.67
2019-01-18T00:21:50.294Z,100770.76
2019-01-18T00:22:27.824Z,100772.08
2019-01-18T00:23:03.995Z,100772.59
2019-01-18T00:23:40.445Z,100773.11
2019-01-18T00:24:17.607Z,100772.82
2019-01-18T00:24:54.124Z,100777.93
2019-01-18T00:25:30.282Z,100772.79
2019-01-18T00:26:06.958Z,100770.61
2019-01-18T00:26:43.337Z,100774.11
2019-01-18T00:27:20.168Z,100776.84
2019-01-18T00:27:57.341Z,100778.44
2019-01-18T00:28:34.076Z,100780.56
2019-01-18T00:29:10.702Z,100785.13
2019-01-18T00:29:47.443Z,100776.20
2019-01-18T00:30:24.405Z,100782.91
2019-01-18T00:31:00.793Z,100785.89
2019-01-18T00:31:37.676Z,100779.98
2019-01-18T00:32:13.785Z,100782.36
2019-01-18T00:32:50.442Z,100792.61
2019-01-18T00:33:27.356Z,100790.17
2019-01-18T00:34:05.092Z,100790.68
2019-01-18T00:34:41.345Z,100792.55
2019-01-18T00:35:18.123Z,100791.20
2019-01-18T00:35:54.490Z,100797.11
2019-01-18T00:36:30.741Z,100798.72
2019-01-18T00:37:07.698Z,100797.33
2019-01-18T00:37:44.060Z,100797.33
2019-01-18T00:38:20.759Z,100802.70
2019-01-18T00:38:57.063Z,100795.95
2019-01-18T00:39:33.772Z,100802.95
2019-01-18T00:40:11.020Z,100808.58
2019-01-18T00:40:48.043Z,100808.58
2019-01-18T00:41:25.021Z,100804.78
2019-01-18T00:42:01.866Z,100804.78
2019-01-18T00:42:39.468Z,100806.39
2019-01-18T00:43:16.284Z,100804.49
2019-01-18T00:43:52.589Z,100808.00
2019-01-18T00:44:29.403Z,100806.39
2019-01-18T00:45:06.551Z,100812.59
2019-01-18T00:45:42.931Z,100812.00
2019-01-18T00:46:19.778Z,100818.72
2019-01-18T00:46:56.074Z,100818.43
2019-01-18T00:47:32.533Z,100817.34
2019-01-18T00:48:09.519Z,100814.60
2019-01-18T00:48:47.390Z,100817.59
2019-01-18T00:49:24.948Z,100818.98
2019-01-18T00:50:01.725Z,100818.98
2019-01-18T00:50:38.305Z,100819.52
2019-01-18T00:51:15.284Z,100829.74
2019-01-18T00:51:52.097Z,100824.34
2019-01-18T00:52:29.016Z,100829.16
2019-01-18T00:53:05.339Z,100825.66
2019-01-18T00:53:42.042Z,100826.72
2019-01-18T00:54:18.859Z,100826.97
2019-01-18T00:54:55.217Z,100827.77
2019-01-18T00:55:31.669Z,100827.77
2019-01-18T00:56:08.098Z,100828.39
2019-01-18T00:56:44.541Z,100826.72
2019-01-18T00:57:20.851Z,100826.72
2019-01-18T00:57:57.051Z,100825.37
2019-01-18T00:58:33.263Z,100829.09
2019-01-18T00:59:09.496Z,100829.09
2019-01-18T00:59:45.882Z,100829.89
2019-01-18T01:00:25.024Z,100831.75
2019-01-18T01:01:01.903Z,100825.84
2019-01-18T01:01:38.696Z,100834.48
2019-01-18T01:02:15.017Z,100833.10
2019-01-18T01:02:51.894Z,100830.91
2019-01-18T01:03:28.233Z,100834.13
2019-01-18T01:04:04.646Z,100831.97
2019-01-18T01:04:41.409Z,100831.97
2019-01-18T01:05:19.006Z,100832.77
2019-01-18T01:05:56.053Z,100839.20
2019-01-18T01:06:32.888Z,100839.20
2019-01-18T01:07:10.026Z,100839.71
2019-01-18T01:07:46.752Z,100837.59
2019-01-18T01:08:23.675Z,100836.09
2019-01-18T01:09:00.746Z,100836.09
2019-01-18T01:09:37.054Z,100841.53
2019-01-18T01:10:14.067Z,100839.38
2019-01-18T01:10:50.983Z,100840.40
2019-01-18T01:11:27.221Z,100843.31
2019-01-18T01:12:04.912Z,100833.27
2019-01-18T01:12:41.841Z,100833.27
2019-01-18T01:13:18.855Z,100848.59
2019-01-18T01:13:55.228Z,100839.39
2019-01-18T01:14:31.907Z,100847.17
2019-01-18T01:15:11.879Z,100837.75
2019-01-18T01:15:48.886Z,100842.27
2019-01-18T01:16:25.259Z,100839.77
2019-01-18T01:17:01.967Z,100847.30
2019-01-18T01:17:39.003Z,100848.64
2019-01-18T01:18:15.264Z,100851.60
2019-01-18T01:18:52.314Z,100851.81
2019-01-18T01:19:29.379Z,100851.81
2019-01-18T01:20:06.845Z,100851.13
2019-01-18T01:20:43.118Z,100851.13
2019-01-18T01:21:20.189Z,100848.94
2019-01-18T01:21:56.423Z,100850.25
2019-01-18T01:22:33.499Z,100850.25
2019-01-18T01:23:10.433Z,100851.34
2019-01-18T01:23:46.519Z,100851.34
2019-01-18T01:24:23.143Z,100846.02
2019-01-18T01:24:59.722Z,100846.02
2019-01-18T01:25:36.022Z,100844.67
2019-01-18T01:26:12.727Z,100844.67
2019-01-18T01:26:49.147Z,100853.97
2019-01-18T01:27:25.671Z,100855.58
2019-01-18T01:28:02.779Z,100864.95
2019-01-18T01:28:39.420Z,100869.00
2019-01-18T01:29:15.721Z,100864.10
2019-01-18T01:29:52.338Z,100858.73
2019-01-18T01:30:28.964Z,100862.75
2019-01-18T01:31:06.099Z,100867.91
2019-01-18T01:31:42.693Z,100863.84
2019-01-18T01:32:19.733Z,100861.69
2019-01-18T01:32:56.352Z,100867.10
2019-01-18T01:33:33.556Z,100869.25
2019-01-18T01:34:10.277Z,100862.80
2019-01-18T01:34:46.590Z,100862.80
2019-01-18T01:35:23.301Z,100872.47
2019-01-18T01:35:59.761Z,100864.95
2019-01-18T01:36:36.485Z,100863.59
2019-01-18T01:37:14.609Z,100865.92
2019-01-18T01:37:51.667Z,100872.94
2019-01-18T01:38:27.962Z,100873.70
2019-01-18T01:39:07.747Z,100873.70
2019-01-18T01:39:44.696Z,100876.70
2019-01-18T01:40:26.945Z,100870.23
2019-01-18T01:41:03.132Z,100870.23
2019-01-18T01:41:39.515Z,100874.96
2019-01-18T01:42:16.082Z,100873.82
2019-01-18T01:42:52.864Z,100873.82
2019-01-18T01:43:29.553Z,100875.47
2019-01-18T01:44:05.781Z,100873.82
2019-01-18T01:44:42.734Z,100874.06
2019-01-18T01:45:18.998Z,100867.30
2019-01-18T01:45:55.765Z,100867.30
2019-01-18T01:46:32.194Z,100867.75
2019-01-18T01:47:09.171Z,100867.75
2019-01-18T01:47:46.150Z,100877.97
2019-01-18T01:48:23.154Z,100877.92
2019-01-18T01:49:00.184Z,100873.88
2019-01-18T01:49:36.711Z,100873.88
2019-01-18T01:50:15.498Z,100869.52
2019-01-18T01:50:51.789Z,100881.03
2019-01-18T01:51:28.011Z,100881.54
2019-01-18T01:52:04.723Z,100881.54
2019-01-18T01:52:41.380Z,100880.09
2019-01-18T01:53:18.792Z,100877.64
2019-01-18T01:53:55.795Z,100877.64
2019-01-18T01:54:34.488Z,100869.02
2019-01-18T01:55:10.916Z,100872.55
2019-01-18T01:55:47.763Z,100872.55
2019-01-18T01:56:24.795Z,100872.47
2019-01-18T01:57:01.993Z,100872.47
2019-01-18T01:57:38.304Z,100871.63
2019-01-18T01:58:14.350Z,100860.00
2019-01-18T01:58:50.915Z,100874.97
2019-01-18T01:59:27.820Z,100875.97
2019-01-18T02:00:04.497Z,100875.97
2019-01-18T02:00:40.971Z,100872.96
2019-01-18T02:01:17.555Z,100875.59
2019-01-18T02:01:53.862Z,100869.93
2019-01-18T02:02:31.337Z,100869.93
2019-01-18T02:03:08.473Z,100877.65
2019-01-18T02:03:45.443Z,100878.34
2019-01-18T02:04:21.829Z,100878.34
2019-01-18T02:04:58.753Z,100875.03
2019-01-18T02:05:35.955Z,100874.96
2019-01-18T02:06:12.637Z,100867.66
2019-01-18T02:06:50.394Z,100867.66
2019-01-18T02:07:27.600Z,100878.56
2019-01-18T02:08:04.157Z,100878.56
2019-01-18T02:08:43.562Z,100878.06
2019-01-18T02:09:20.088Z,100880.41
2019-01-18T02:09:57.696Z,100881.16
2019-01-18T02:10:35.027Z,100877.90
2019-01-18T02:11:11.881Z,100881.11
2019-01-18T02:11:48.540Z,100873.23
2019-01-18T02:12:25.326Z,100874.64
2019-01-18T02:13:01.670Z,100879.20
2019-01-18T02:13:38.803Z,100880.50
2019-01-18T02:14:15.316Z,100872.67
2019-01-18T02:14:51.700Z,100870.46
2019-01-18T02:15:29.108Z,100872.13
2019-01-18T02:16:05.925Z,100870.71
2019-01-18T02:16:42.270Z,100873.97
2019-01-18T02:17:18.802Z,100878.81
2019-01-18T02:17:55.955Z,100879.34
2019-01-18T02:18:32.130Z,100875.83
2019-01-18T02:19:09.543Z,100879.59
2019-01-18T02:19:47.987Z,100878.48
2019-01-18T02:20:26.375Z,100876.83
2019-01-18T02:21:03.437Z,100875.41
2019-01-18T02:21:40.113Z,100880.03
2019-01-18T02:22:16.336Z,100877.81
2019-01-18T02:22:52.791Z,100882.25
2019-01-18T02:23:30.238Z,100880.97
2019-01-18T02:24:07.171Z,100868.61
2019-01-18T02:24:43.554Z,100867.81
2019-01-18T02:25:23.935Z,100873.17
2019-01-18T02:26:00.270Z,100875.94
2019-01-18T02:26:37.214Z,100875.85
2019-01-18T02:27:13.577Z,100869.83
2019-01-18T02:27:50.156Z,100868.72
2019-01-18T02:28:27.391Z,100864.05
2019-01-18T02:29:05.509Z,100863.30
2019-01-18T02:29:43.524Z,100865.41
2019-01-18T02:30:25.467Z,100868.00
2019-01-18T02:31:01.689Z,100868.53
2019-01-18T02:31:38.675Z,100872.52
2019-01-18T02:32:15.088Z,100869.44
2019-01-18T02:32:51.505Z,100863.66
2019-01-18T02:33:27.955Z,100868.47
2019-01-18T02:34:05.236Z,100865.11
2019-01-18T02:34:41.940Z,100858.28
2019-01-18T02:35:18.577Z,100856.06
2019-01-18T02:35:54.952Z,100860.31
2019-01-18T02:36:31.242Z,100860.27
2019-01-18T02:37:07.611Z,100856.94
2019-01-18T02:37:44.430Z,100854.72
2019-01-18T02:38:20.865Z,100854.59
2019-01-18T02:38:57.824Z,100862.73
2019-01-18T02:39:34.198Z,100856.50
2019-01-18T02:40:12.348Z,100856.02
2019-01-18T02:40:49.422Z,100852.25
2019-01-18T02:41:26.227Z,100855.45
2019-01-18T02:42:02.398Z,100852.50
2019-01-18T02:42:39.933Z,100851.08
2019-01-18T02:43:16.659Z,100849.70
2019-01-18T02:43:53.830Z,100848.28
2019-01-18T02:44:30.938Z,100853.14
2019-01-18T02:45:10.066Z,100849.58
2019-01-18T02:45:47.104Z,100848.22
2019-01-18T02:46:23.523Z,100847.42
2019-01-18T02:47:00.496Z,100846.37
2019-01-18T02:47:37.396Z,100844.27
2019-01-18T02:48:13.735Z,100845.26
2019-01-18T02:48:50.718Z,100850.69
2019-01-18T02:49:27.787Z,100850.93
2019-01-18T02:50:04.346Z,100850.06
2019-01-18T02:50:41.338Z,100847.02
2019-01-18T02:51:19.163Z,100846.88
2019-01-18T02:51:56.429Z,100841.09
2019-01-18T02:52:32.809Z,100848.33
2019-01-18T02:53:10.014Z,100848.51
2019-01-18T02:53:46.373Z,100848.13
2019-01-18T02:54:22.527Z,100852.20
2019-01-18T02:55:00.455Z,100845.97
2019-01-18T02:55:37.522Z,100849.36
2019-01-18T02:56:14.529Z,100846.02
2019-01-18T02:56:51.654Z,100844.91
2019-01-18T02:57:29.223Z,100853.05
2019-01-18T02:58:05.615Z,100847.20
2019-01-18T02:58:42.380Z,100850.47
2019-01-18T02:59:19.398Z,100847.13
2019-01-18T02:59:56.456Z,100848.92
2019-01-18T03:00:33.071Z,100849.99
2019-01-18T03:01:10.515Z,100846.72
2019-01-18T03:01:47.767Z,100852.08
2019-01-18T03:02:24.730Z,100848.25
2019-01-18T03:03:01.950Z,100848.25
2019-01-18T03:03:38.252Z,100846.03
2019-01-18T03:04:17.092Z,100845.55
2019-01-18T03:04:53.688Z,100848.19
2019-01-18T03:05:30.785Z,100843.01
2019-01-18T03:06:07.415Z,100853.06
2019-01-18T03:06:43.821Z,100845.16
2019-01-18T03:07:20.847Z,100852.19
2019-01-18T03:07:57.416Z,100851.57
2019-01-18T03:08:33.994Z,100848.86
2019-01-18T03:09:12.080Z,100847.19
2019-01-18T03:09:49.349Z,100848.47
2019-01-18T03:10:30.892Z,100845.72
2019-01-18T03:11:07.244Z,100848.13
2019-01-18T03:11:44.202Z,100848.39
2019-01-18T03:12:21.117Z,100844.50
2019-01-18T03:12:58.136Z,100848.26
2019-01-18T03:13:35.196Z,100843.70
2019-01-18T03:14:12.259Z,100843.70
2019-01-18T03:14:49.273Z,100843.95
2019-01-18T03:15:26.519Z,100845.55
2019-01-18T03:16:03.357Z,100838.90
2019-01-18T03:16:40.265Z,100838.52
2019-01-18T03:17:16.644Z,100840.67
2019-01-18T03:17:53.533Z,100838.38
2019-01-18T03:18:30.518Z,100839.11
2019-01-18T03:19:07.771Z,100841.92
2019-01-18T03:19:44.598Z,100840.80
2019-01-18T03:20:21.599Z,100845.02
2019-01-18T03:20:58.214Z,100841.91
2019-01-18T03:21:34.629Z,100839.05
2019-01-18T03:22:11.490Z,100841.93
2019-01-18T03:22:48.166Z,100840.26
2019-01-18T03:23:25.021Z,100839.63
2019-01-18T03:24:03.362Z,100834.44
2019-01-18T03:24:40.182Z,100841.74
2019-01-18T03:25:21.499Z,100840.38
2019-01-18T03:25:58.143Z,100836.80
2019-01-18T03:26:34.888Z,100839.63
2019-01-18T03:27:11.585Z,100838.20
2019-01-18T03:27:47.836Z,100840.84
2019-01-18T03:28:24.590Z,100836.13
2019-01-18T03:29:01.482Z,100837.66
2019-01-18T03:29:37.969Z,100839.09
2019-01-18T03:30:18.972Z,100839.25
2019-01-18T03:30:54.829Z,100841.92
2019-01-18T03:31:31.040Z,100835.93
2019-01-18T03:32:07.728Z,100831.53
2019-01-18T03:32:44.378Z,100839.05
2019-01-18T03:33:21.261Z,100833.54
2019-01-18T03:33:57.910Z,100838.02
2019-01-18T03:34:34.840Z,100836.50
2019-01-18T03:35:15.287Z,100835.26
2019-01-18T03:35:52.293Z,100832.14
2019-01-18T03:36:29.147Z,100830.37
2019-01-18T03:37:05.847Z,100829.93
2019-01-18T03:37:42.558Z,100827.61
2019-01-18T03:38:18.960Z,100834.83
2019-01-18T03:38:55.918Z,100826.83
2019-01-18T03:39:32.725Z,100835.47
2019-01-18T03:40:10.249Z,100831.45
2019-01-18T03:40:46.692Z,100826.09
2019-01-18T03:41:23.450Z,100825.71
2019-01-18T03:41:59.853Z,100823.94
2019-01-18T03:42:36.455Z,100823.30
2019-01-18T03:43:13.483Z,100821.29
2019-01-18T03:43:49.919Z,100820.64
2019-01-18T03:44:26.687Z,100829.08
2019-01-18T03:45:03.506Z,100819.05
2019-01-18T03:45:40.389Z,100818.64
2019-01-18T03:46:17.129Z,100824.55
2019-01-18T03:46:54.119Z,100820.38
2019-01-18T03:47:30.397Z,100820.06
2019-01-18T03:48:07.395Z,100822.78
2019-01-18T03:48:43.516Z,100820.30
2019-01-18T03:49:19.971Z,100820.38
2019-01-18T03:49:57.097Z,100821.83
2019-01-18T03:50:33.821Z,100827.98
2019-01-18T03:51:10.650Z,100824.23
2019-01-18T03:51:46.968Z,100822.95
2019-01-18T03:52:23.561Z,100815.68
2019-01-18T03:53:00.510Z,100821.36
2019-01-18T03:53:37.011Z,100816.86
2019-01-18T03:54:13.253Z,100819.82
2019-01-18T03:54:49.891Z,100817.34
2019-01-18T03:55:26.776Z,100818.46
2019-01-18T03:56:03.787Z,100815.03
2019-01-18T03:56:39.953Z,100819.94
2019-01-18T03:57:16.951Z,100816.33
2019-01-18T03:57:54.494Z,100816.09
2019-01-18T03:58:31.204Z,100810.23
2019-01-18T03:59:07.863Z,100821.77
2019-01-18T03:59:44.850Z,100817.60
2019-01-18T04:00:26.859Z,100817.52
2019-01-18T04:01:03.747Z,100816.86
2019-01-18T04:01:40.548Z,100815.73
2019-01-18T04:02:16.837Z,100820.86
2019-01-18T04:02:53.827Z,100817.57
2019-01-18T04:03:30.095Z,100819.97
2019-01-18T04:04:07.270Z,100813.81
2019-01-18T04:04:43.891Z,100819.17
2019-01-18T04:05:21.185Z,100818.08
2019-01-18T04:05:57.618Z,100812.87
2019-01-18T04:06:34.428Z,100816.71
2019-01-18T04:07:10.657Z,100810.70
2019-01-18T04:07:47.325Z,100812.63
2019-01-18T04:08:24.014Z,100811.98
2019-01-18T04:09:00.453Z,100807.09
2019-01-18T04:09:37.378Z,100805.97
2019-01-18T04:10:16.806Z,100803.25
2019-01-18T04:10:53.623Z,100795.88
2019-01-18T04:11:30.751Z,100806.11
2019-01-18T04:12:07.449Z,100799.55
2019-01-18T04:12:44.404Z,100796.97
2019-01-18T04:13:20.661Z,100798.89
2019-01-18T04:13:57.623Z,100800.02
2019-01-18T04:14:34.491Z,100797.95
2019-01-18T04:15:15.118Z,100796.41
2019-01-18T04:15:51.463Z,100803.21
2019-01-18T04:16:28.182Z,100800.48
2019-01-18T04:17:05.306Z,100797.44
2019-01-18T04:17:42.060Z,100798.23
2019-01-18T04:18:18.526Z,100795.75
2019-01-18T04:18:54.638Z,100794.62
2019-01-18T04:19:30.827Z,100795.19
2019-01-18T04:20:08.839Z,100789.83
2019-01-18T04:20:46.467Z,100795.05
2019-01-18T04:21:23.537Z,100792.79
2019-01-18T04:21:59.778Z,100790.06
2019-01-18T04:22:36.251Z,100790.30
2019-01-18T04:23:12.488Z,100788.28
2019-01-18T04:23:49.262Z,100794.30
2019-01-18T04:24:26.134Z,100797.42
2019-01-18T04:25:02.752Z,100792.71
2019-01-18T04:25:39.093Z,100787.97
2019-01-18T04:26:15.444Z,100792.29
2019-01-18T04:26:51.751Z,100791.40
2019-01-18T04:27:28.707Z,100794.92
2019-01-18T04:28:05.816Z,100787.78
2019-01-18T04:28:41.963Z,100788.25
2019-01-18T04:29:18.761Z,100788.72
2019-01-18T04:29:55.653Z,100787.59
2019-01-18T04:30:33.549Z,100789.66
2019-01-18T04:31:10.389Z,100786.27
2019-01-18T04:31:47.414Z,100786.77
2019-01-18T04:32:24.533Z,100783.39
2019-01-18T04:33:01.450Z,100783.86
2019-01-18T04:33:38.554Z,100784.42
2019-01-18T04:34:15.240Z,100786.58
2019-01-18T04:34:51.566Z,100779.67
2019-01-18T04:35:28.348Z,100779.67
2019-01-18T04:36:04.719Z,100783.43
2019-01-18T04:36:41.131Z,100782.06
2019-01-18T04:37:17.974Z,100783.20
2019-01-18T04:37:55.375Z,100781.97
2019-01-18T04:38:32.538Z,100779.37
2019-01-18T04:39:09.776Z,100778.81
2019-01-18T04:39:46.486Z,100777.12
2019-01-18T04:40:27.163Z,100780.97
2019-01-18T04:41:03.418Z,100774.80
2019-01-18T04:41:40.018Z,100773.36
2019-01-18T04:42:16.284Z,100776.88
2019-01-18T04:42:52.619Z,100777.34
2019-01-18T04:43:29.568Z,100773.89
2019-01-18T04:44:06.779Z,100771.44
2019-01-18T04:44:43.087Z,100771.10
2019-01-18T04:45:20.001Z,100770.14
2019-01-18T04:45:56.921Z,100771.73
2019-01-18T04:46:33.155Z,100763.56
2019-01-18T04:47:10.008Z,100764.92
2019-01-18T04:47:47.010Z,100767.91
2019-01-18T04:48:24.242Z,100766.78
2019-01-18T04:49:00.762Z,100770.44
2019-01-18T04:49:37.949Z,100765.82
2019-01-18T04:50:19.218Z,100756.02
2019-01-18T04:50:55.930Z,100756.81
2019-01-18T04:51:32.330Z,100765.98
2019-01-18T04:52:09.220Z,100759.08
2019-01-18T04:52:45.602Z,100763.09
2019-01-18T04:53:22.100Z,100764.69
2019-01-18T04:53:58.995Z,100761.09
2019-01-18T04:54:36.044Z,100758.38
2019-01-18T04:55:12.390Z,100753.79
2019-01-18T04:55:49.356Z,100755.38
2019-01-18T04:56:25.893Z,100756.28
2019-01-18T04:57:02.299Z,100753.55
2019-01-18T04:57:39.212Z,100748.73
2019-01-18T04:58:16.073Z,100755.09
2019-01-18T04:58:52.464Z,100752.23
2019-01-18T04:59:29.313Z,100745.98
2019-01-18T05:00:08.328Z,100751.77
2019-01-18T05:00:45.228Z,100746.64
2019-01-18T05:01:21.824Z,100746.55
2019-01-18T05:01:58.680Z,100747.11
2019-01-18T05:02:35.096Z,100745.52
2019-01-18T05:03:11.611Z,100745.98
2019-01-18T05:03:48.660Z,100744.85
2019-01-18T05:04:25.031Z,100744.85
2019-01-18T05:05:01.848Z,100736.67
2019-01-18T05:05:38.898Z,100734.28
2019-01-18T05:06:15.744Z,100735.75
2019-01-18T05:06:52.868Z,100737.11
2019-01-18T05:07:30.227Z,100734.61
2019-01-18T05:08:06.908Z,100730.96
2019-01-18T05:08:43.281Z,100736.88
2019-01-18T05:09:20.030Z,100733.22
2019-01-18T05:09:57.111Z,100732.09
2019-01-18T05:10:33.841Z,100733.88
2019-01-18T05:11:10.691Z,100730.27
2019-01-18T05:11:47.090Z,100734.11
2019-01-18T05:12:23.453Z,100727.88
2019-01-18T05:13:00.549Z,100729.89
2019-01-18T05:13:36.915Z,100729.56
2019-01-18T05:14:13.120Z,100729.56
2019-01-18T05:14:50.065Z,100728.20
2019-01-18T05:15:28.500Z,100721.86
2019-01-18T05:16:06.766Z,100725.61
2019-01-18T05:16:43.385Z,100727.44
2019-01-18T05:17:21.119Z,100721.99
2019-01-18T05:17:57.630Z,100722.33
2019-01-18T05:18:34.214Z,100720.27
2019-01-18T05:19:10.483Z,100724.81
2019-01-18T05:19:46.978Z,100715.05
2019-01-18T05:20:23.532Z,100713.22
2019-01-18T05:21:00.456Z,100714.81
2019-01-18T05:21:37.017Z,100717.20
2019-01-18T05:22:13.781Z,100712.55
2019-01-18T05:22:50.772Z,100715.28
2019-01-18T05:23:28.310Z,100710.06
2019-01-18T05:24:04.577Z,100710.53
2019-01-18T05:24:41.372Z,100704.84
2019-01-18T05:25:17.962Z,100705.08
2019-01-18T05:25:54.820Z,100703.62
2019-01-18T05:26:32.076Z,100703.95
2019-01-18T05:27:08.357Z,100705.08
2019-01-18T05:27:44.785Z,100704.52
2019-01-18T05:28:21.658Z,100703.72
2019-01-18T05:28:58.057Z,100700.76
2019-01-18T05:29:34.614Z,100701.33
2019-01-18T05:30:17.490Z,100700.99
2019-01-18T05:30:54.050Z,100694.41
2019-01-18T05:31:30.384Z,100694.87
2019-01-18T05:32:07.295Z,100701.25
2019-01-18T05:32:44.384Z,100691.84
2019-01-18T05:33:21.163Z,100694.47
2019-01-18T05:33:57.392Z,100686.79
2019-01-18T05:34:34.153Z,100690.87
2019-01-18T05:35:11.674Z,100688.39
2019-01-18T05:35:47.998Z,100689.67
2019-01-18T05:36:24.696Z,100691.27
2019-01-18T05:37:01.356Z,100689.80
2019-01-18T05:37:38.357Z,100690.83
2019-01-18T05:38:15.006Z,100691.86
2019-01-18T05:38:51.780Z,100685.05
2019-01-18T05:39:28.142Z,100685.95
2019-01-18T05:40:04.907Z,100684.35
2019-01-18T05:40:41.831Z,100681.39
2019-01-18T05:41:19.051Z,100676.97
2019-01-18T05:41:55.521Z,100683.22
2019-01-18T05:42:32.723Z,100681.52
2019-01-18T05:43:09.478Z,100677.20
2019-01-18T05:43:46.292Z,100680.73
2019-01-18T05:44:22.754Z,100682.53
2019-01-18T05:44:59.528Z,100685.25
2019-01-18T05:45:35.841Z,100677.48
2019-01-18T05:46:12.156Z,100673.16
2019-01-18T05:46:48.284Z,100675.39
2019-01-18T05:47:25.299Z,100674.94
2019-01-18T05:48:02.123Z,100670.15
2019-01-18T05:48:38.964Z,100671.95
2019-01-18T05:49:17.024Z,100667.86
2019-01-18T05:49:53.996Z,100667.63
2019-01-18T05:50:31.613Z,100667.86
2019-01-18T05:51:08.009Z,100665.94
2019-01-18T05:51:44.904Z,100666.97
2019-01-18T05:52:21.968Z,100667.20
2019-01-18T05:53:00.602Z,100660.16
2019-01-18T05:53:37.382Z,100657.99
2019-01-18T05:54:14.007Z,100663.31
2019-01-18T05:54:50.825Z,100659.89
2019-01-18T05:55:27.338Z,100660.80
2019-01-18T05:56:03.791Z,100663.05
2019-01-18T05:56:41.383Z,100656.34
2019-01-18T05:57:17.666Z,100657.21
2019-01-18T05:57:54.594Z,100659.38
2019-01-18T05:58:31.235Z,100654.59
2019-01-18T05:59:07.582Z,100650.94
2019-01-18T05:59:44.297Z,100652.06
2019-01-18T06:00:37.767Z,100650.94
2019-01-18T06:01:15.270Z,100650.94
2019-01-18T06:01:52.542Z,100643.20
2019-01-18T06:02:28.918Z,100645.25
2019-01-18T06:03:06.488Z,100645.48
2019-01-18T06:03:42.717Z,100646.62
2019-01-18T06:04:18.867Z,100644.80
2019-01-18T06:04:56.322Z,100640.70
2019-01-18T06:05:33.483Z,100643.77
2019-01-18T06:06:10.559Z,100644.89
2019-01-18T06:06:47.141Z,100638.42
2019-01-18T06:07:24.181Z,100637.95
2019-01-18T06:08:00.937Z,100638.62
2019-01-18T06:08:37.842Z,100634.53
2019-01-18T06:09:14.985Z,100636.13
2019-01-18T06:09:51.350Z,100636.92
2019-01-18T06:10:30.060Z,100631.94
2019-01-18T06:11:06.764Z,100630.25
2019-01-18T06:11:43.114Z,100630.25
2019-01-18T06:12:20.076Z,100629.32
2019-01-18T06:12:56.828Z,100626.83
2019-01-18T06:13:33.824Z,100632.50
2019-01-18T06:14:10.318Z,100630.02
2019-01-18T06:14:47.056Z,100624.56
2019-01-18T06:15:23.587Z,100624.47
2019-01-18T06:16:01.377Z,100616.06
2019-01-18T06:16:37.756Z,100619.81
2019-01-18T06:17:14.708Z,100614.80
2019-01-18T06:17:51.056Z,100614.57
2019-01-18T06:18:27.830Z,100617.86
2019-01-18T06:19:04.597Z,100613.47
2019-01-18T06:19:41.022Z,100608.72
2019-01-18T06:20:18.087Z,100610.77
2019-01-18T06:20:55.074Z,100609.54
2019-01-18T06:21:32.021Z,100611.86
2019-01-18T06:22:08.555Z,100611.75
2019-01-18T06:22:45.680Z,100609.47
2019-01-18T06:23:22.767Z,100607.61
2019-01-18T06:23:59.284Z,100606.48
2019-01-18T06:24:35.920Z,100603.06
2019-01-18T06:25:13.032Z,100599.52
2019-01-18T06:25:49.555Z,100596.90
2019-01-18T06:26:26.304Z,100602.78
2019-01-18T06:27:02.628Z,100593.02
2019-01-18T06:27:38.927Z,100603.11
2019-01-18T06:28:15.267Z,100597.10
2019-01-18T06:28:51.362Z,100597.47
2019-01-18T06:29:28.298Z,100596.80
2019-01-18T06:30:05.338Z,100595.33
2019-01-18T06:30:41.549Z,100594.88
2019-01-18T06:31:18.450Z,100586.70
2019-01-18T06:31:55.398Z,100589.19
2019-01-18T06:32:31.682Z,100585.77
2019-01-18T06:33:08.725Z,100584.84
2019-01-18T06:33:45.089Z,100581.77
2019-01-18T06:34:22.111Z,100581.80
2019-01-18T06:34:59.129Z,100587.91
2019-01-18T06:35:35.623Z,100586.09
2019-01-18T06:36:12.604Z,100579.95
2019-01-18T06:36:49.311Z,100578.79
2019-01-18T06:37:26.231Z,100574.44
2019-01-18T06:38:02.596Z,100575.08
2019-01-18T06:38:39.711Z,100573.25
2019-01-18T06:39:16.513Z,100570.30
2019-01-18T06:39:52.822Z,100574.61
2019-01-18T06:40:29.737Z,100573.88
2019-01-18T06:41:34.024Z,100568.73
2019-01-18T06:42:11.192Z,100566.97
2019-01-18T06:42:47.890Z,100562.22
2019-01-18T06:43:24.677Z,100569.63
2019-01-18T06:44:01.238Z,100566.47
2019-01-18T06:44:37.979Z,100561.38
2019-01-18T06:45:15.940Z,100563.41
2019-01-18T06:45:52.327Z,100558.43
2019-01-18T06:46:29.209Z,100556.94
2019-01-18T06:47:06.772Z,100558.17
2019-01-18T06:47:43.079Z,100559.33
2019-01-18T06:48:23.956Z,100558.43
2019-01-18T06:49:01.205Z,100560.02
2019-01-18T06:49:38.022Z,100556.73
2019-01-18T06:50:16.567Z,100555.33
2019-01-18T06:50:53.203Z,100551.38
2019-01-18T06:51:29.566Z,100545.82
2019-01-18T06:52:06.582Z,100549.23
2019-01-18T06:52:43.117Z,100547.31
2019-01-18T06:53:20.067Z,100545.61
2019-01-18T06:53:57.120Z,100543.79
2019-01-18T06:54:34.405Z,100543.33
2019-01-18T06:55:11.963Z,100545.38
2019-01-18T06:55:49.137Z,100540.16
2019-01-18T06:56:25.696Z,100536.06
2019-01-18T06:57:02.338Z,100540.25
2019-01-18T06:57:39.167Z,100545.23
2019-01-18T06:58:15.471Z,100539.37
2019-01-18T06:58:51.851Z,100538.67
2019-01-18T06:59:29.132Z,100537.98
2019-01-18T07:00:06.163Z,100535.23
2019-01-18T07:00:42.696Z,100532.61
2019-01-18T07:01:19.739Z,100530.22
2019-01-18T07:01:55.893Z,100535.05